sensor_id;sensor_type;location;lat;lon;timestamp;P1;durP1;ratioP1;P2;durP2;ratioP2
80229;SDS011;69540;42.136;24.742;2024-01-25T00:01:25;16.95;;;11.15;;
80229;SDS011;69540;42.136;24.742;2024-01-25T00:03:51;14.93;;;10.93;;
80229;SDS011;69540;42.136;24.742;2024-01-25T00:06:17;15.07;;;10.88;;
80229;SDS011;69540;42.136;24.742;2024-01-25T00:08:42;14.27;;;10.52;;
80229;SDS011;69540;42.136;24.742;2024-01-25T00:11:08;15.32;;;10.32;;
80229;SDS011;69540;42.136;24.742;2024-01-25T00:13:34;13.82;;;10.65;;
80229;SDS011;69540;42.136;24.742;2024-01-25T00:16:01;15.70;;;10.05;;
80229;SDS011;69540;42.136;24.742;2024-01-25T00:18:26;13.40;;;10.32;;
80229;SDS011;69540;42.136;24.742;2024-01-25T00:20:54;17.83;;;11.20;;
80229;SDS011;69540;42.136;24.742;2024-01-25T00:23:20;15.27;;;10.63;;
80229;SDS011;69540;42.136;24.742;2024-01-25T00:25:46;14.13;;;10.43;;
80229;SDS011;69540;42.136;24.742;2024-01-25T00:28:12;13.82;;;10.15;;
80229;SDS011;69540;42.136;24.742;2024-01-25T00:30:38;13.23;;;10.35;;
80229;SDS011;69540;42.136;24.742;2024-01-25T00:33:04;13.57;;;10.35;;
80229;SDS011;69540;42.136;24.742;2024-01-25T00:35:30;16.92;;;11.10;;
80229;SDS011;69540;42.136;24.742;2024-01-25T00:37:56;16.15;;;10.70;;
80229;SDS011;69540;42.136;24.742;2024-01-25T00:40:22;15.30;;;10.20;;
80229;SDS011;69540;42.136;24.742;2024-01-25T00:42:48;13.23;;;10.05;;
80229;SDS011;69540;42.136;24.742;2024-01-25T00:45:21;15.07;;;10.82;;
80229;SDS011;69540;42.136;24.742;2024-01-25T00:47:48;14.75;;;10.60;;
80229;SDS011;69540;42.136;24.742;2024-01-25T00:50:15;17.13;;;10.50;;
80229;SDS011;69540;42.136;24.742;2024-01-25T00:52:46;17.30;;;11.30;;
80229;SDS011;69540;42.136;24.742;2024-01-25T00:55:13;14.82;;;10.45;;
80229;SDS011;69540;42.136;24.742;2024-01-25T00:57:39;15.48;;;10.73;;
80229;SDS011;69540;42.136;24.742;2024-01-25T01:00:06;14.90;;;10.52;;
80229;SDS011;69540;42.136;24.742;2024-01-25T01:02:35;14.90;;;11.02;;
80229;SDS011;69540;42.136;24.742;2024-01-25T01:05:04;14.18;;;10.05;;
80229;SDS011;69540;42.136;24.742;2024-01-25T01:07:30;12.60;;;9.60;;
80229;SDS011;69540;42.136;24.742;2024-01-25T01:09:56;12.38;;;8.80;;
80229;SDS011;69540;42.136;24.742;2024-01-25T01:12:22;9.32;;;7.57;;
80229;SDS011;69540;42.136;24.742;2024-01-25T01:14:47;8.90;;;6.28;;
80229;SDS011;69540;42.136;24.742;2024-01-25T01:17:13;5.90;;;4.43;;
80229;SDS011;69540;42.136;24.742;2024-01-25T01:19:39;5.80;;;4.40;;
80229;SDS011;69540;42.136;24.742;2024-01-25T01:22:05;4.32;;;3.20;;
80229;SDS011;69540;42.136;24.742;2024-01-25T01:24:30;3.05;;;2.70;;
80229;SDS011;69540;42.136;24.742;2024-01-25T01:26:56;2.95;;;2.65;;
80229;SDS011;69540;42.136;24.742;2024-01-25T01:29:22;4.65;;;2.85;;
80229;SDS011;69540;42.136;24.742;2024-01-25T01:31:47;3.42;;;2.78;;
80229;SDS011;69540;42.136;24.742;2024-01-25T01:34:13;2.95;;;2.70;;
80229;SDS011;69540;42.136;24.742;2024-01-25T01:36:39;2.83;;;2.53;;
80229;SDS011;69540;42.136;24.742;2024-01-25T01:39:05;3.13;;;2.60;;
80229;SDS011;69540;42.136;24.742;2024-01-25T01:41:33;3.95;;;2.90;;
80229;SDS011;69540;42.136;24.742;2024-01-25T01:43:59;3.33;;;3.03;;
80229;SDS011;69540;42.136;24.742;2024-01-25T01:46:36;3.80;;;2.80;;
80229;SDS011;69540;42.136;24.742;2024-01-25T01:49:12;3.40;;;3.10;;
80229;SDS011;69540;42.136;24.742;2024-01-25T01:51:38;3.72;;;2.88;;
80229;SDS011;69540;42.136;24.742;2024-01-25T01:54:06;4.25;;;2.72;;
80229;SDS011;69540;42.136;24.742;2024-01-25T01:56:32;3.05;;;2.67;;
80229;SDS011;69540;42.136;24.742;2024-01-25T01:59:02;3.38;;;2.45;;
80229;SDS011;69540;42.136;24.742;2024-01-25T02:01:30;3.17;;;2.88;;
80229;SDS011;69540;42.136;24.742;2024-01-25T02:03:56;2.70;;;2.50;;
80229;SDS011;69540;42.136;24.742;2024-01-25T02:06:25;3.00;;;2.70;;
80229;SDS011;69540;42.136;24.742;2024-01-25T02:08:52;2.60;;;2.40;;
80229;SDS011;69540;42.136;24.742;2024-01-25T02:11:23;2.93;;;2.60;;
80229;SDS011;69540;42.136;24.742;2024-01-25T02:13:49;2.95;;;2.65;;
80229;SDS011;69540;42.136;24.742;2024-01-25T02:16:16;2.72;;;2.47;;
80229;SDS011;69540;42.136;24.742;2024-01-25T02:18:42;2.95;;;2.55;;
80229;SDS011;69540;42.136;24.742;2024-01-25T02:21:08;2.83;;;2.50;;
80229;SDS011;69540;42.136;24.742;2024-01-25T02:23:34;3.00;;;2.70;;
80229;SDS011;69540;42.136;24.742;2024-01-25T02:26:00;2.53;;;2.33;;
80229;SDS011;69540;42.136;24.742;2024-01-25T02:28:25;4.20;;;2.45;;
80229;SDS011;69540;42.136;24.742;2024-01-25T02:30:51;3.10;;;2.38;;
80229;SDS011;69540;42.136;24.742;2024-01-25T02:33:17;4.70;;;2.50;;
80229;SDS011;69540;42.136;24.742;2024-01-25T02:35:43;3.60;;;2.80;;
80229;SDS011;69540;42.136;24.742;2024-01-25T02:38:08;2.60;;;2.40;;
80229;SDS011;69540;42.136;24.742;2024-01-25T02:40:34;3.08;;;2.70;;
80229;SDS011;69540;42.136;24.742;2024-01-25T02:43:00;3.45;;;2.90;;
80229;SDS011;69540;42.136;24.742;2024-01-25T02:45:25;3.65;;;2.90;;
80229;SDS011;69540;42.136;24.742;2024-01-25T02:47:51;3.22;;;2.55;;
80229;SDS011;69540;42.136;24.742;2024-01-25T02:50:17;3.00;;;2.45;;
80229;SDS011;69540;42.136;24.742;2024-01-25T02:52:42;3.10;;;2.35;;
80229;SDS011;69540;42.136;24.742;2024-01-25T02:55:08;2.88;;;2.53;;
80229;SDS011;69540;42.136;24.742;2024-01-25T02:57:34;2.90;;;2.63;;
80229;SDS011;69540;42.136;24.742;2024-01-25T03:00:00;2.78;;;2.55;;
80229;SDS011;69540;42.136;24.742;2024-01-25T03:02:25;2.38;;;1.98;;
80229;SDS011;69540;42.136;24.742;2024-01-25T03:04:51;2.67;;;2.42;;
80229;SDS011;69540;42.136;24.742;2024-01-25T03:07:17;2.30;;;2.10;;
80229;SDS011;69540;42.136;24.742;2024-01-25T03:09:43;2.80;;;2.05;;
80229;SDS011;69540;42.136;24.742;2024-01-25T03:12:08;2.53;;;2.20;;
80229;SDS011;69540;42.136;24.742;2024-01-25T03:14:34;2.95;;;1.95;;
80229;SDS011;69540;42.136;24.742;2024-01-25T03:17:00;1.95;;;1.85;;
80229;SDS011;69540;42.136;24.742;2024-01-25T03:19:26;1.92;;;1.75;;
80229;SDS011;69540;42.136;24.742;2024-01-25T03:21:53;1.83;;;1.73;;
80229;SDS011;69540;42.136;24.742;2024-01-25T03:24:21;2.40;;;2.00;;
80229;SDS011;69540;42.136;24.742;2024-01-25T03:26:47;2.05;;;1.80;;
80229;SDS011;69540;42.136;24.742;2024-01-25T03:29:13;1.98;;;1.88;;
80229;SDS011;69540;42.136;24.742;2024-01-25T03:31:39;2.30;;;2.10;;
80229;SDS011;69540;42.136;24.742;2024-01-25T03:34:05;2.30;;;2.10;;
80229;SDS011;69540;42.136;24.742;2024-01-25T03:36:31;2.33;;;2.13;;
80229;SDS011;69540;42.136;24.742;2024-01-25T03:38:57;3.08;;;2.78;;
80229;SDS011;69540;42.136;24.742;2024-01-25T03:41:22;4.07;;;2.35;;
80229;SDS011;69540;42.136;24.742;2024-01-25T03:43:49;3.05;;;2.70;;
80229;SDS011;69540;42.136;24.742;2024-01-25T03:46:15;3.28;;;2.83;;
80229;SDS011;69540;42.136;24.742;2024-01-25T03:48:41;3.22;;;2.92;;
80229;SDS011;69540;42.136;24.742;2024-01-25T03:51:06;2.75;;;2.42;;
80229;SDS011;69540;42.136;24.742;2024-01-25T03:53:33;3.30;;;2.40;;
80229;SDS011;69540;42.136;24.742;2024-01-25T03:55:58;2.63;;;2.42;;
80229;SDS011;69540;42.136;24.742;2024-01-25T03:58:24;3.47;;;2.50;;
80229;SDS011;69540;42.136;24.742;2024-01-25T04:00:50;2.83;;;2.63;;
80229;SDS011;69540;42.136;24.742;2024-01-25T04:03:15;3.33;;;2.28;;
80229;SDS011;69540;42.136;24.742;2024-01-25T04:05:41;1.88;;;1.77;;
80229;SDS011;69540;42.136;24.742;2024-01-25T04:08:07;1.50;;;1.40;;
80229;SDS011;69540;42.136;24.742;2024-01-25T04:10:33;3.03;;;1.63;;
80229;SDS011;69540;42.136;24.742;2024-01-25T04:12:59;1.48;;;1.38;;
80229;SDS011;69540;42.136;24.742;2024-01-25T04:15:29;1.27;;;1.17;;
80229;SDS011;69540;42.136;24.742;2024-01-25T04:17:55;1.65;;;1.40;;
80229;SDS011;69540;42.136;24.742;2024-01-25T04:20:21;1.67;;;1.20;;
80229;SDS011;69540;42.136;24.742;2024-01-25T04:22:47;1.65;;;1.55;;
80229;SDS011;69540;42.136;24.742;2024-01-25T04:25:13;1.30;;;1.20;;
80229;SDS011;69540;42.136;24.742;2024-01-25T04:27:39;2.42;;;1.30;;
80229;SDS011;69540;42.136;24.742;2024-01-25T04:30:07;1.65;;;1.55;;
80229;SDS011;69540;42.136;24.742;2024-01-25T04:32:33;1.73;;;1.40;;
80229;SDS011;69540;42.136;24.742;2024-01-25T04:35:00;2.25;;;1.20;;
80229;SDS011;69540;42.136;24.742;2024-01-25T04:37:25;3.17;;;1.40;;
80229;SDS011;69540;42.136;24.742;2024-01-25T04:39:51;1.40;;;1.30;;
80229;SDS011;69540;42.136;24.742;2024-01-25T04:42:17;1.70;;;1.40;;
80229;SDS011;69540;42.136;24.742;2024-01-25T04:44:43;2.10;;;1.40;;
80229;SDS011;69540;42.136;24.742;2024-01-25T04:47:08;1.48;;;1.38;;
80229;SDS011;69540;42.136;24.742;2024-01-25T04:49:34;1.30;;;1.20;;
80229;SDS011;69540;42.136;24.742;2024-01-25T04:52:00;1.33;;;1.10;;
80229;SDS011;69540;42.136;24.742;2024-01-25T04:54:26;1.08;;;0.98;;
80229;SDS011;69540;42.136;24.742;2024-01-25T04:56:52;1.60;;;1.40;;
80229;SDS011;69540;42.136;24.742;2024-01-25T04:59:18;1.52;;;1.25;;
80229;SDS011;69540;42.136;24.742;2024-01-25T05:01:43;1.55;;;1.45;;
80229;SDS011;69540;42.136;24.742;2024-01-25T05:04:09;1.73;;;1.63;;
80229;SDS011;69540;42.136;24.742;2024-01-25T05:06:35;1.70;;;1.60;;
80229;SDS011;69540;42.136;24.742;2024-01-25T05:09:01;1.55;;;1.45;;
80229;SDS011;69540;42.136;24.742;2024-01-25T05:11:26;1.90;;;1.50;;
80229;SDS011;69540;42.136;24.742;2024-01-25T05:13:52;2.22;;;1.67;;
80229;SDS011;69540;42.136;24.742;2024-01-25T05:16:18;2.50;;;1.45;;
80229;SDS011;69540;42.136;24.742;2024-01-25T05:18:43;1.67;;;1.40;;
80229;SDS011;69540;42.136;24.742;2024-01-25T05:21:09;1.45;;;1.35;;
80229;SDS011;69540;42.136;24.742;2024-01-25T05:23:35;1.85;;;1.15;;
80229;SDS011;69540;42.136;24.742;2024-01-25T05:26:01;1.45;;;1.35;;
80229;SDS011;69540;42.136;24.742;2024-01-25T05:28:27;1.20;;;1.10;;
80229;SDS011;69540;42.136;24.742;2024-01-25T05:30:53;1.50;;;1.40;;
80229;SDS011;69540;42.136;24.742;2024-01-25T05:33:18;1.63;;;1.52;;
80229;SDS011;69540;42.136;24.742;2024-01-25T05:35:44;2.15;;;1.27;;
80229;SDS011;69540;42.136;24.742;2024-01-25T05:38:10;3.30;;;1.52;;
80229;SDS011;69540;42.136;24.742;2024-01-25T05:40:35;1.50;;;1.40;;
80229;SDS011;69540;42.136;24.742;2024-01-25T05:43:01;3.10;;;1.45;;
80229;SDS011;69540;42.136;24.742;2024-01-25T05:45:28;1.50;;;1.40;;
80229;SDS011;69540;42.136;24.742;2024-01-25T05:47:53;2.30;;;1.55;;
80229;SDS011;69540;42.136;24.742;2024-01-25T05:50:19;1.92;;;1.40;;
80229;SDS011;69540;42.136;24.742;2024-01-25T05:52:45;1.80;;;1.25;;
80229;SDS011;69540;42.136;24.742;2024-01-25T05:55:10;1.52;;;1.20;;
80229;SDS011;69540;42.136;24.742;2024-01-25T05:57:39;2.35;;;1.25;;
80229;SDS011;69540;42.136;24.742;2024-01-25T06:00:04;1.88;;;1.45;;
80229;SDS011;69540;42.136;24.742;2024-01-25T06:02:31;1.95;;;1.40;;
80229;SDS011;69540;42.136;24.742;2024-01-25T06:04:56;1.40;;;1.30;;
80229;SDS011;69540;42.136;24.742;2024-01-25T06:07:25;1.38;;;1.20;;
80229;SDS011;69540;42.136;24.742;2024-01-25T06:09:51;2.25;;;1.50;;
80229;SDS011;69540;42.136;24.742;2024-01-25T06:12:17;2.00;;;1.55;;
80229;SDS011;69540;42.136;24.742;2024-01-25T06:14:43;1.95;;;1.17;;
80229;SDS011;69540;42.136;24.742;2024-01-25T06:17:08;1.40;;;1.15;;
80229;SDS011;69540;42.136;24.742;2024-01-25T06:19:34;2.75;;;1.20;;
80229;SDS011;69540;42.136;24.742;2024-01-25T06:22:00;1.38;;;1.27;;
80229;SDS011;69540;42.136;24.742;2024-01-25T06:24:26;1.67;;;1.55;;
80229;SDS011;69540;42.136;24.742;2024-01-25T06:26:54;1.92;;;1.83;;
80229;SDS011;69540;42.136;24.742;2024-01-25T06:29:20;3.50;;;1.90;;
80229;SDS011;69540;42.136;24.742;2024-01-25T06:31:46;1.90;;;1.73;;
80229;SDS011;69540;42.136;24.742;2024-01-25T06:34:11;3.45;;;1.70;;
80229;SDS011;69540;42.136;24.742;2024-01-25T06:36:37;2.30;;;2.10;;
80229;SDS011;69540;42.136;24.742;2024-01-25T06:39:03;2.17;;;2.00;;
80229;SDS011;69540;42.136;24.742;2024-01-25T06:41:29;2.13;;;1.80;;
80229;SDS011;69540;42.136;24.742;2024-01-25T06:43:56;3.00;;;1.50;;
80229;SDS011;69540;42.136;24.742;2024-01-25T06:46:21;2.42;;;1.60;;
80229;SDS011;69540;42.136;24.742;2024-01-25T06:48:47;3.08;;;2.00;;
80229;SDS011;69540;42.136;24.742;2024-01-25T06:51:14;3.42;;;2.00;;
80229;SDS011;69540;42.136;24.742;2024-01-25T06:53:39;2.67;;;1.77;;
80229;SDS011;69540;42.136;24.742;2024-01-25T06:56:05;3.10;;;1.80;;
80229;SDS011;69540;42.136;24.742;2024-01-25T06:58:31;2.75;;;1.88;;
80229;SDS011;69540;42.136;24.742;2024-01-25T07:00:57;2.85;;;1.50;;
80229;SDS011;69540;42.136;24.742;2024-01-25T07:03:23;2.10;;;1.70;;
80229;SDS011;69540;42.136;24.742;2024-01-25T07:05:49;2.22;;;1.58;;
80229;SDS011;69540;42.136;24.742;2024-01-25T07:08:14;5.32;;;1.90;;
80229;SDS011;69540;42.136;24.742;2024-01-25T07:10:41;1.58;;;1.48;;
80229;SDS011;69540;42.136;24.742;2024-01-25T07:13:07;1.52;;;1.42;;
80229;SDS011;69540;42.136;24.742;2024-01-25T07:15:33;2.45;;;1.70;;
80229;SDS011;69540;42.136;24.742;2024-01-25T07:17:58;4.55;;;1.80;;
80229;SDS011;69540;42.136;24.742;2024-01-25T07:20:24;2.22;;;1.77;;
80229;SDS011;69540;42.136;24.742;2024-01-25T07:22:50;3.78;;;2.15;;
80229;SDS011;69540;42.136;24.742;2024-01-25T07:25:15;5.68;;;2.17;;
80229;SDS011;69540;42.136;24.742;2024-01-25T07:27:44;3.08;;;1.58;;
80229;SDS011;69540;42.136;24.742;2024-01-25T07:30:11;3.88;;;1.88;;
80229;SDS011;69540;42.136;24.742;2024-01-25T07:32:38;2.20;;;1.80;;
80229;SDS011;69540;42.136;24.742;2024-01-25T07:35:07;5.25;;;2.10;;
80229;SDS011;69540;42.136;24.742;2024-01-25T07:37:35;2.70;;;1.67;;
80229;SDS011;69540;42.136;24.742;2024-01-25T07:40:01;2.80;;;1.60;;
80229;SDS011;69540;42.136;24.742;2024-01-25T07:42:30;2.17;;;1.40;;
80229;SDS011;69540;42.136;24.742;2024-01-25T07:44:55;2.83;;;1.70;;
80229;SDS011;69540;42.136;24.742;2024-01-25T07:47:22;3.15;;;1.58;;
80229;SDS011;69540;42.136;24.742;2024-01-25T07:49:48;5.32;;;2.08;;
80229;SDS011;69540;42.136;24.742;2024-01-25T07:52:14;4.90;;;1.92;;
80229;SDS011;69540;42.136;24.742;2024-01-25T07:54:40;2.63;;;1.70;;
80229;SDS011;69540;42.136;24.742;2024-01-25T07:57:06;3.50;;;1.70;;
80229;SDS011;69540;42.136;24.742;2024-01-25T07:59:31;3.25;;;1.30;;
80229;SDS011;69540;42.136;24.742;2024-01-25T08:01:57;2.55;;;1.65;;
80229;SDS011;69540;42.136;24.742;2024-01-25T08:04:23;3.45;;;1.85;;
80229;SDS011;69540;42.136;24.742;2024-01-25T08:06:48;2.42;;;1.73;;
80229;SDS011;69540;42.136;24.742;2024-01-25T08:09:14;2.67;;;1.70;;
80229;SDS011;69540;42.136;24.742;2024-01-25T08:11:40;2.92;;;1.83;;
80229;SDS011;69540;42.136;24.742;2024-01-25T08:14:06;2.30;;;1.80;;
80229;SDS011;69540;42.136;24.742;2024-01-25T08:16:32;2.42;;;1.63;;
80229;SDS011;69540;42.136;24.742;2024-01-25T08:19:00;2.08;;;1.23;;
80229;SDS011;69540;42.136;24.742;2024-01-25T08:21:25;4.50;;;1.85;;
80229;SDS011;69540;42.136;24.742;2024-01-25T08:23:51;3.70;;;2.08;;
80229;SDS011;69540;42.136;24.742;2024-01-25T08:26:17;2.72;;;1.85;;
80229;SDS011;69540;42.136;24.742;2024-01-25T08:28:42;5.07;;;2.42;;
80229;SDS011;69540;42.136;24.742;2024-01-25T08:31:09;3.17;;;1.98;;
80229;SDS011;69540;42.136;24.742;2024-01-25T08:33:35;3.03;;;2.15;;
80229;SDS011;69540;42.136;24.742;2024-01-25T08:36:01;5.53;;;2.20;;
80229;SDS011;69540;42.136;24.742;2024-01-25T08:38:27;7.30;;;2.50;;
80229;SDS011;69540;42.136;24.742;2024-01-25T08:40:53;3.83;;;1.75;;
80229;SDS011;69540;42.136;24.742;2024-01-25T08:43:19;3.03;;;1.85;;
80229;SDS011;69540;42.136;24.742;2024-01-25T08:45:45;3.88;;;1.88;;
80229;SDS011;69540;42.136;24.742;2024-01-25T08:48:11;7.50;;;2.15;;
80229;SDS011;69540;42.136;24.742;2024-01-25T08:50:38;4.63;;;2.20;;
80229;SDS011;69540;42.136;24.742;2024-01-25T08:53:04;3.60;;;2.05;;
80229;SDS011;69540;42.136;24.742;2024-01-25T08:55:30;5.82;;;2.17;;
80229;SDS011;69540;42.136;24.742;2024-01-25T08:57:56;4.45;;;1.90;;
80229;SDS011;69540;42.136;24.742;2024-01-25T09:00:22;5.60;;;2.33;;
80229;SDS011;69540;42.136;24.742;2024-01-25T09:02:47;8.18;;;2.63;;
80229;SDS011;69540;42.136;24.742;2024-01-25T09:05:13;4.80;;;2.03;;
80229;SDS011;69540;42.136;24.742;2024-01-25T09:07:39;3.33;;;2.05;;
80229;SDS011;69540;42.136;24.742;2024-01-25T09:10:06;3.42;;;1.95;;
80229;SDS011;69540;42.136;24.742;2024-01-25T09:12:33;4.45;;;2.75;;
80229;SDS011;69540;42.136;24.742;2024-01-25T09:15:00;6.25;;;2.40;;
80229;SDS011;69540;42.136;24.742;2024-01-25T09:17:25;5.10;;;2.22;;
80229;SDS011;69540;42.136;24.742;2024-01-25T09:19:51;5.00;;;2.25;;
80229;SDS011;69540;42.136;24.742;2024-01-25T09:22:17;4.22;;;2.55;;
80229;SDS011;69540;42.136;24.742;2024-01-25T09:24:45;5.00;;;2.10;;
80229;SDS011;69540;42.136;24.742;2024-01-25T09:27:11;3.38;;;1.90;;
80229;SDS011;69540;42.136;24.742;2024-01-25T09:29:37;6.82;;;2.50;;
80229;SDS011;69540;42.136;24.742;2024-01-25T09:32:06;5.20;;;2.15;;
80229;SDS011;69540;42.136;24.742;2024-01-25T09:34:34;3.45;;;2.05;;
80229;SDS011;69540;42.136;24.742;2024-01-25T09:37:00;4.45;;;2.50;;
80229;SDS011;69540;42.136;24.742;2024-01-25T09:39:26;5.10;;;2.25;;
80229;SDS011;69540;42.136;24.742;2024-01-25T09:41:51;8.55;;;2.67;;
80229;SDS011;69540;42.136;24.742;2024-01-25T09:44:17;5.53;;;2.40;;
80229;SDS011;69540;42.136;24.742;2024-01-25T09:46:43;4.28;;;2.35;;
80229;SDS011;69540;42.136;24.742;2024-01-25T09:49:13;5.57;;;2.03;;
80229;SDS011;69540;42.136;24.742;2024-01-25T09:51:41;4.75;;;2.25;;
80229;SDS011;69540;42.136;24.742;2024-01-25T09:54:07;6.10;;;2.30;;
80229;SDS011;69540;42.136;24.742;2024-01-25T09:56:33;4.13;;;2.28;;
80229;SDS011;69540;42.136;24.742;2024-01-25T09:59:00;4.72;;;2.50;;
80229;SDS011;69540;42.136;24.742;2024-01-25T10:01:27;6.00;;;2.55;;
80229;SDS011;69540;42.136;24.742;2024-01-25T10:03:53;5.97;;;2.70;;
80229;SDS011;69540;42.136;24.742;2024-01-25T10:06:21;3.65;;;2.30;;
80229;SDS011;69540;42.136;24.742;2024-01-25T10:08:47;4.60;;;2.13;;
80229;SDS011;69540;42.136;24.742;2024-01-25T10:11:13;4.97;;;2.35;;
80229;SDS011;69540;42.136;24.742;2024-01-25T10:13:48;5.22;;;2.78;;
80229;SDS011;69540;42.136;24.742;2024-01-25T10:16:16;3.20;;;2.53;;
80229;SDS011;69540;42.136;24.742;2024-01-25T10:18:46;5.28;;;2.63;;
80229;SDS011;69540;42.136;24.742;2024-01-25T10:21:13;6.60;;;2.40;;
80229;SDS011;69540;42.136;24.742;2024-01-25T10:23:39;4.50;;;2.17;;
80229;SDS011;69540;42.136;24.742;2024-01-25T10:26:05;5.82;;;2.30;;
80229;SDS011;69540;42.136;24.742;2024-01-25T10:28:33;4.95;;;2.47;;
80229;SDS011;69540;42.136;24.742;2024-01-25T10:31:02;3.53;;;2.05;;
80229;SDS011;69540;42.136;24.742;2024-01-25T10:33:32;5.10;;;2.30;;
80229;SDS011;69540;42.136;24.742;2024-01-25T10:36:02;4.65;;;2.00;;
80229;SDS011;69540;42.136;24.742;2024-01-25T10:38:31;7.22;;;3.17;;
80229;SDS011;69540;42.136;24.742;2024-01-25T10:41:00;4.40;;;2.45;;
80229;SDS011;69540;42.136;24.742;2024-01-25T10:43:31;6.97;;;2.70;;
80229;SDS011;69540;42.136;24.742;2024-01-25T10:45:57;4.45;;;2.22;;
80229;SDS011;69540;42.136;24.742;2024-01-25T10:48:27;4.88;;;2.13;;
80229;SDS011;69540;42.136;24.742;2024-01-25T10:50:54;4.03;;;2.10;;
80229;SDS011;69540;42.136;24.742;2024-01-25T10:53:24;3.28;;;2.10;;
80229;SDS011;69540;42.136;24.742;2024-01-25T10:55:51;7.85;;;2.75;;
80229;SDS011;69540;42.136;24.742;2024-01-25T10:58:17;4.88;;;2.35;;
80229;SDS011;69540;42.136;24.742;2024-01-25T11:00:55;3.42;;;2.17;;
80229;SDS011;69540;42.136;24.742;2024-01-25T11:03:26;3.25;;;2.03;;
80229;SDS011;69540;42.136;24.742;2024-01-25T11:05:54;3.83;;;2.38;;
80229;SDS011;69540;42.136;24.742;2024-01-25T11:08:21;5.63;;;2.30;;
80229;SDS011;69540;42.136;24.742;2024-01-25T11:10:51;4.13;;;2.08;;
80229;SDS011;69540;42.136;24.742;2024-01-25T11:13:23;3.75;;;2.42;;
80229;SDS011;69540;42.136;24.742;2024-01-25T11:15:50;5.03;;;2.90;;
80229;SDS011;69540;42.136;24.742;2024-01-25T11:18:16;4.28;;;2.30;;
80229;SDS011;69540;42.136;24.742;2024-01-25T11:20:42;4.78;;;2.22;;
80229;SDS011;69540;42.136;24.742;2024-01-25T11:23:11;6.45;;;2.38;;
80229;SDS011;69540;42.136;24.742;2024-01-25T11:25:41;6.40;;;2.30;;
80229;SDS011;69540;42.136;24.742;2024-01-25T11:28:10;4.88;;;2.53;;
80229;SDS011;69540;42.136;24.742;2024-01-25T11:30:36;4.07;;;2.55;;
80229;SDS011;69540;42.136;24.742;2024-01-25T11:33:06;4.43;;;2.38;;
80229;SDS011;69540;42.136;24.742;2024-01-25T11:35:33;5.55;;;2.15;;
80229;SDS011;69540;42.136;24.742;2024-01-25T11:37:58;5.90;;;2.75;;
80229;SDS011;69540;42.136;24.742;2024-01-25T11:40:26;6.22;;;3.20;;
80229;SDS011;69540;42.136;24.742;2024-01-25T11:42:56;4.93;;;2.72;;
80229;SDS011;69540;42.136;24.742;2024-01-25T11:45:22;4.55;;;2.70;;
80229;SDS011;69540;42.136;24.742;2024-01-25T11:47:48;5.13;;;2.72;;
80229;SDS011;69540;42.136;24.742;2024-01-25T11:50:15;6.20;;;2.95;;
80229;SDS011;69540;42.136;24.742;2024-01-25T11:52:41;5.10;;;2.92;;
80229;SDS011;69540;42.136;24.742;2024-01-25T11:55:07;5.50;;;2.83;;
80229;SDS011;69540;42.136;24.742;2024-01-25T11:57:34;5.63;;;2.63;;
80229;SDS011;69540;42.136;24.742;2024-01-25T12:00:02;5.72;;;3.13;;
80229;SDS011;69540;42.136;24.742;2024-01-25T12:02:30;4.20;;;2.60;;
80229;SDS011;69540;42.136;24.742;2024-01-25T12:04:56;5.97;;;2.67;;
80229;SDS011;69540;42.136;24.742;2024-01-25T12:07:22;5.55;;;2.92;;
80229;SDS011;69540;42.136;24.742;2024-01-25T12:10:04;4.22;;;2.40;;
80229;SDS011;69540;42.136;24.742;2024-01-25T12:12:31;4.70;;;2.53;;
80229;SDS011;69540;42.136;24.742;2024-01-25T12:14:58;4.20;;;2.35;;
80229;SDS011;69540;42.136;24.742;2024-01-25T12:17:26;4.82;;;2.55;;
80229;SDS011;69540;42.136;24.742;2024-01-25T12:19:56;6.35;;;2.63;;
80229;SDS011;69540;42.136;24.742;2024-01-25T12:22:23;5.18;;;2.70;;
80229;SDS011;69540;42.136;24.742;2024-01-25T12:24:55;2.92;;;2.40;;
80229;SDS011;69540;42.136;24.742;2024-01-25T12:27:21;4.70;;;2.78;;
80229;SDS011;69540;42.136;24.742;2024-01-25T12:29:49;6.32;;;2.58;;
80229;SDS011;69540;42.136;24.742;2024-01-25T12:32:21;6.10;;;2.42;;
80229;SDS011;69540;42.136;24.742;2024-01-25T12:34:56;6.10;;;3.08;;
80229;SDS011;69540;42.136;24.742;2024-01-25T12:37:23;6.28;;;2.53;;
80229;SDS011;69540;42.136;24.742;2024-01-25T12:39:50;5.57;;;2.53;;
80229;SDS011;69540;42.136;24.742;2024-01-25T12:42:16;7.88;;;2.78;;
80229;SDS011;69540;42.136;24.742;2024-01-25T12:44:43;5.00;;;2.38;;
80229;SDS011;69540;42.136;24.742;2024-01-25T12:47:09;3.63;;;2.47;;
80229;SDS011;69540;42.136;24.742;2024-01-25T12:49:35;5.55;;;2.88;;
80229;SDS011;69540;42.136;24.742;2024-01-25T12:52:01;5.57;;;2.95;;
80229;SDS011;69540;42.136;24.742;2024-01-25T12:54:26;5.20;;;2.63;;
80229;SDS011;69540;42.136;24.742;2024-01-25T12:56:53;7.45;;;2.60;;
80229;SDS011;69540;42.136;24.742;2024-01-25T12:59:19;3.28;;;2.20;;
80229;SDS011;69540;42.136;24.742;2024-01-25T13:01:45;3.28;;;2.08;;
80229;SDS011;69540;42.136;24.742;2024-01-25T13:04:10;4.45;;;2.60;;
80229;SDS011;69540;42.136;24.742;2024-01-25T13:06:36;4.47;;;2.75;;
80229;SDS011;69540;42.136;24.742;2024-01-25T13:09:02;6.38;;;2.72;;
80229;SDS011;69540;42.136;24.742;2024-01-25T13:11:29;3.88;;;2.30;;
80229;SDS011;69540;42.136;24.742;2024-01-25T13:13:55;5.70;;;2.38;;
80229;SDS011;69540;42.136;24.742;2024-01-25T13:16:20;5.00;;;2.40;;
80229;SDS011;69540;42.136;24.742;2024-01-25T13:18:46;5.10;;;2.50;;
80229;SDS011;69540;42.136;24.742;2024-01-25T13:21:12;4.47;;;2.55;;
80229;SDS011;69540;42.136;24.742;2024-01-25T13:23:37;5.45;;;2.75;;
80229;SDS011;69540;42.136;24.742;2024-01-25T13:26:03;5.50;;;2.63;;
80229;SDS011;69540;42.136;24.742;2024-01-25T13:28:29;4.20;;;2.33;;
80229;SDS011;69540;42.136;24.742;2024-01-25T13:30:56;3.40;;;2.10;;
80229;SDS011;69540;42.136;24.742;2024-01-25T13:33:22;6.80;;;2.72;;
80229;SDS011;69540;42.136;24.742;2024-01-25T13:35:48;7.05;;;2.53;;
80229;SDS011;69540;42.136;24.742;2024-01-25T13:38:14;3.38;;;2.15;;
80229;SDS011;69540;42.136;24.742;2024-01-25T13:40:41;6.07;;;2.47;;
80229;SDS011;69540;42.136;24.742;2024-01-25T13:43:07;6.32;;;2.30;;
80229;SDS011;69540;42.136;24.742;2024-01-25T13:45:33;5.63;;;2.88;;
80229;SDS011;69540;42.136;24.742;2024-01-25T13:47:59;6.78;;;2.65;;
80229;SDS011;69540;42.136;24.742;2024-01-25T13:50:24;5.72;;;2.33;;
80229;SDS011;69540;42.136;24.742;2024-01-25T13:52:50;5.47;;;2.55;;
80229;SDS011;69540;42.136;24.742;2024-01-25T13:55:16;5.70;;;2.53;;
80229;SDS011;69540;42.136;24.742;2024-01-25T13:57:42;5.80;;;2.85;;
80229;SDS011;69540;42.136;24.742;2024-01-25T14:00:07;6.55;;;2.47;;
80229;SDS011;69540;42.136;24.742;2024-01-25T14:02:34;5.68;;;2.70;;
80229;SDS011;69540;42.136;24.742;2024-01-25T14:05:01;7.32;;;2.83;;
80229;SDS011;69540;42.136;24.742;2024-01-25T14:07:27;3.33;;;2.53;;
80229;SDS011;69540;42.136;24.742;2024-01-25T14:09:53;8.80;;;2.75;;
80229;SDS011;69540;42.136;24.742;2024-01-25T14:12:19;3.55;;;2.05;;
80229;SDS011;69540;42.136;24.742;2024-01-25T14:14:45;5.75;;;2.85;;
80229;SDS011;69540;42.136;24.742;2024-01-25T14:17:10;5.20;;;2.60;;
80229;SDS011;69540;42.136;24.742;2024-01-25T14:19:36;5.53;;;2.65;;
80229;SDS011;69540;42.136;24.742;2024-01-25T14:22:02;6.80;;;2.70;;
80229;SDS011;69540;42.136;24.742;2024-01-25T14:24:28;5.07;;;2.58;;
80229;SDS011;69540;42.136;24.742;2024-01-25T14:26:53;6.88;;;2.72;;
80229;SDS011;69540;42.136;24.742;2024-01-25T14:29:19;7.85;;;2.97;;